Terminal Aerodrome Forecast
Issued by NWS

Home | Current Version | Previous Version | Text Only | Print | Product List | Glossary On
Versions: 1 2 3 4 5 6 7 8 9 10 11 12
338
FTUS42 KGSP 271720
TAFGMU
TAF
KGMU 271720Z 2718/2818 12009KT P6SM SCT045
      TEMPO 2718/2720 06005KT
     FM272000 09006KT P6SM VCTS SCT045CB
     FM280000 08004KT P6SM FEW050 SCT250
     FM280200 05003KT P6SM FEW050 SCT250
     FM280900 04007KT P6SM FEW020 SCT050
     FM281300 05008KT P6SM FEW050 SCT150=

USA.gov is the U.S. government's official web portal to all federal, state and local government web resources and services.